createdAt,value
2019-03-09T00:02:10.781Z,41.95
2019-03-09T00:04:40.161Z,43.52
2019-03-09T00:07:09.589Z,39.08
2019-03-09T00:09:39.028Z,42.58
2019-03-09T00:12:08.415Z,42.10
2019-03-09T00:14:37.846Z,40.60
2019-03-09T00:17:07.265Z,40.63
2019-03-09T00:19:36.686Z,41.23
2019-03-09T00:22:06.114Z,39.42
2019-03-09T00:24:37.126Z,38.55
2019-03-09T00:27:08.138Z,37.25
2019-03-09T00:29:39.125Z,33.28
2019-03-09T00:32:10.119Z,31.87
2019-03-09T00:34:39.830Z,33.50
2019-03-09T00:37:09.189Z,36.00
2019-03-09T00:39:38.626Z,34.03
2019-03-09T00:42:07.989Z,32.93
2019-03-09T00:44:37.346Z,30.97
2019-03-09T00:47:06.855Z,30.70
2019-03-09T00:49:36.288Z,32.00
2019-03-09T00:52:05.735Z,29.82
2019-03-09T00:54:35.161Z,30.80
2019-03-09T00:57:04.593Z,30.30
2019-03-09T00:59:34.012Z,28.20
2019-03-09T01:02:03.445Z,29.77
2019-03-09T01:04:32.860Z,29.07
2019-03-09T01:07:02.289Z,30.75
2019-03-09T01:09:31.706Z,31.45
2019-03-09T01:12:01.064Z,31.52
2019-03-09T01:14:30.409Z,31.25
2019-03-09T01:16:59.890Z,32.30
2019-03-09T01:19:29.259Z,30.15
2019-03-09T01:21:58.690Z,28.67
2019-03-09T01:24:28.122Z,26.55
2019-03-09T01:26:57.562Z,27.95
2019-03-09T01:29:26.987Z,25.50
2019-03-09T01:31:56.463Z,25.45
2019-03-09T01:34:30.003Z,26.29
2019-03-09T01:36:59.443Z,24.30
2019-03-09T01:39:28.814Z,25.55
2019-03-09T01:41:58.185Z,25.55
2019-03-09T01:44:27.614Z,24.60
2019-03-09T01:46:57.060Z,24.63
2019-03-09T01:49:26.421Z,24.80
2019-03-09T01:51:55.956Z,26.02
2019-03-09T01:54:25.399Z,25.15
2019-03-09T01:56:54.836Z,25.35
2019-03-09T01:59:24.264Z,25.25
2019-03-09T02:01:53.662Z,23.83
2019-03-09T02:04:23.087Z,22.62
2019-03-09T02:06:52.438Z,39.65
2019-03-09T02:09:22.081Z,52.05
2019-03-09T02:11:51.455Z,29.95
2019-03-09T02:14:20.899Z,16.67
2019-03-09T02:16:50.337Z,13.95
2019-03-09T02:19:20.053Z,13.10
2019-03-09T02:21:49.485Z,11.93
2019-03-09T02:24:18.846Z,11.28
2019-03-09T02:26:48.275Z,10.72
2019-03-09T02:29:17.647Z,11.15
2019-03-09T02:31:47.068Z,11.73
2019-03-09T02:34:16.704Z,11.00
2019-03-09T02:36:46.122Z,11.40
2019-03-09T02:39:20.121Z,10.48
2019-03-09T02:41:49.534Z,10.95
2019-03-09T02:44:18.964Z,10.90
2019-03-09T02:46:48.410Z,10.90
2019-03-09T02:49:17.775Z,11.05
2019-03-09T02:51:47.304Z,10.80
2019-03-09T02:54:16.668Z,10.00
2019-03-09T02:56:46.111Z,12.10
2019-03-09T02:59:15.487Z,11.75
2019-03-09T03:01:52.250Z,11.88
2019-03-09T03:04:21.721Z,11.65
2019-03-09T03:06:51.144Z,10.90
2019-03-09T03:09:20.513Z,11.88
2019-03-09T03:11:49.885Z,12.00
2019-03-09T03:14:19.339Z,12.00
2019-03-09T03:16:48.835Z,11.03
2019-03-09T03:19:18.218Z,12.15
2019-03-09T03:21:47.658Z,11.63
2019-03-09T03:24:17.095Z,12.15
2019-03-09T03:26:46.472Z,12.13
2019-03-09T03:29:15.837Z,12.10
2019-03-09T03:31:45.283Z,13.50
2019-03-09T03:34:14.745Z,15.23
2019-03-09T03:36:44.173Z,17.77
2019-03-09T03:39:13.583Z,19.30
2019-03-09T03:41:42.937Z,19.05
2019-03-09T03:44:12.370Z,22.65
2019-03-09T03:46:41.716Z,18.17
2019-03-09T03:49:11.135Z,19.62
2019-03-09T03:51:40.618Z,20.00
2019-03-09T03:54:09.991Z,19.02
2019-03-09T03:56:39.348Z,17.80
2019-03-09T03:59:08.770Z,20.50
2019-03-09T04:01:38.133Z,20.27
2019-03-09T04:04:07.481Z,20.05
2019-03-09T04:06:36.900Z,19.62
2019-03-09T04:09:06.950Z,18.20
2019-03-09T04:11:36.391Z,17.77
2019-03-09T04:14:05.752Z,16.45
2019-03-09T04:16:35.196Z,14.60
2019-03-09T04:19:04.613Z,12.20
2019-03-09T04:21:33.968Z,12.43
2019-03-09T04:24:03.401Z,13.60
2019-03-09T04:26:32.844Z,20.50
2019-03-09T04:29:02.188Z,19.50
2019-03-09T04:31:31.631Z,15.10
2019-03-09T04:34:01.000Z,13.58
2019-03-09T04:36:30.455Z,13.20
2019-03-09T04:38:59.894Z,13.88
2019-03-09T04:41:29.337Z,13.95
2019-03-09T04:43:58.695Z,12.78
2019-03-09T04:46:28.152Z,13.10
2019-03-09T04:48:57.580Z,13.43
2019-03-09T04:51:26.949Z,14.43
2019-03-09T04:53:56.390Z,13.78
2019-03-09T04:56:25.760Z,13.72
2019-03-09T04:58:55.136Z,23.00
2019-03-09T05:01:24.575Z,22.27
2019-03-09T05:04:08.547Z,22.62
2019-03-09T05:06:37.912Z,23.62
2019-03-09T05:09:18.998Z,25.57
2019-03-09T05:11:48.426Z,26.75
2019-03-09T05:14:17.813Z,35.80
2019-03-09T05:16:47.271Z,40.03
2019-03-09T05:19:16.642Z,37.40
2019-03-09T05:21:46.082Z,31.17
2019-03-09T05:24:15.468Z,28.23
2019-03-09T05:26:45.085Z,26.20
2019-03-09T05:29:14.556Z,31.20
2019-03-09T05:31:43.948Z,35.68
2019-03-09T05:34:13.418Z,30.52
2019-03-09T05:36:42.845Z,27.17
2019-03-09T05:39:12.268Z,26.37
2019-03-09T05:41:41.823Z,24.07
2019-03-09T05:44:11.183Z,19.27
2019-03-09T05:46:40.716Z,19.80
2019-03-09T05:49:10.145Z,16.82
2019-03-09T05:51:39.547Z,19.48
2019-03-09T05:54:08.982Z,20.25
2019-03-09T05:56:38.522Z,25.97
2019-03-09T05:59:07.900Z,22.05
2019-03-09T06:01:37.387Z,27.58
2019-03-09T06:04:06.999Z,27.15
2019-03-09T06:06:36.555Z,23.60
2019-03-09T06:09:06.083Z,21.80
2019-03-09T06:11:35.759Z,22.30
2019-03-09T06:14:05.211Z,21.65
2019-03-09T06:16:34.658Z,23.60
2019-03-09T06:19:04.173Z,56.90
2019-03-09T06:21:33.625Z,65.87
2019-03-09T06:24:03.167Z,49.30
2019-03-09T06:26:32.550Z,38.35
2019-03-09T06:29:02.113Z,33.18
2019-03-09T06:31:31.856Z,30.72
2019-03-09T06:34:01.331Z,30.75
2019-03-09T06:36:36.487Z,29.85
2019-03-09T06:39:08.056Z,28.57
2019-03-09T06:41:40.438Z,29.72
2019-03-09T06:44:09.994Z,25.52
2019-03-09T06:46:39.568Z,23.95
2019-03-09T06:49:09.085Z,24.20
2019-03-09T06:51:38.560Z,25.65
2019-03-09T06:54:08.147Z,23.85
2019-03-09T06:56:37.519Z,23.75
2019-03-09T06:59:06.970Z,22.90
2019-03-09T07:01:36.454Z,22.02
2019-03-09T07:04:06.018Z,19.52
2019-03-09T07:06:35.151Z,19.87
2019-03-09T07:09:06.003Z,20.62
2019-03-09T07:11:35.380Z,21.77
2019-03-09T07:14:10.346Z,21.00
2019-03-09T07:16:39.846Z,20.52
2019-03-09T07:19:09.221Z,19.10
2019-03-09T07:21:38.658Z,19.55
2019-03-09T07:24:08.084Z,19.98
2019-03-09T07:26:37.893Z,18.12
2019-03-09T07:29:07.338Z,14.30
2019-03-09T07:31:36.797Z,18.17
2019-03-09T07:34:25.410Z,8.55
2019-03-09T07:36:54.846Z,9.15
2019-03-09T07:39:24.232Z,7.03
2019-03-09T07:41:53.599Z,9.15
2019-03-09T07:44:22.972Z,9.63
2019-03-09T07:46:52.400Z,9.28
2019-03-09T07:49:21.772Z,10.43
2019-03-09T07:51:51.198Z,9.10
2019-03-09T07:54:20.638Z,7.28
2019-03-09T07:56:50.160Z,7.28
2019-03-09T07:59:19.623Z,6.00
2019-03-09T08:01:48.997Z,6.45
2019-03-09T08:04:18.365Z,6.62
2019-03-09T08:06:47.840Z,7.55
2019-03-09T08:09:17.222Z,6.70
2019-03-09T08:11:46.660Z,6.03
2019-03-09T08:14:16.105Z,6.55
2019-03-09T08:16:48.443Z,6.37
2019-03-09T08:19:17.883Z,6.85
2019-03-09T08:21:47.723Z,8.28
2019-03-09T08:24:17.156Z,6.30
2019-03-09T08:26:46.640Z,7.08
2019-03-09T08:29:16.375Z,7.05
2019-03-09T08:31:45.845Z,6.30
2019-03-09T08:34:15.282Z,6.60
2019-03-09T08:36:44.695Z,7.17
2019-03-09T08:39:14.166Z,7.83
2019-03-09T08:41:43.613Z,6.53
2019-03-09T08:44:13.030Z,6.53
2019-03-09T08:46:42.492Z,7.62
2019-03-09T08:49:11.843Z,8.50
2019-03-09T08:51:41.291Z,6.50
2019-03-09T08:54:10.744Z,7.00
2019-03-09T08:56:40.166Z,7.40
2019-03-09T08:59:09.541Z,6.67
2019-03-09T09:01:38.974Z,6.50
2019-03-09T09:04:08.323Z,6.28
2019-03-09T09:06:37.775Z,8.13
2019-03-09T09:09:07.516Z,6.92
2019-03-09T09:11:36.955Z,5.75
2019-03-09T09:14:06.397Z,5.72
2019-03-09T09:16:35.843Z,5.25
2019-03-09T09:19:05.282Z,5.60
2019-03-09T09:21:34.721Z,4.60
2019-03-09T09:24:04.089Z,4.40
2019-03-09T09:26:33.512Z,5.55
2019-03-09T09:29:02.578Z,5.07
2019-03-09T09:31:32.017Z,4.80
2019-03-09T09:34:01.384Z,3.75
2019-03-09T09:36:30.463Z,4.73
2019-03-09T09:38:59.888Z,4.62
2019-03-09T09:41:29.320Z,4.22
2019-03-09T09:43:58.493Z,4.90
2019-03-09T09:46:28.011Z,5.08
2019-03-09T09:48:57.134Z,4.43
2019-03-09T09:51:26.676Z,4.30
2019-03-09T09:53:56.106Z,4.55
2019-03-09T09:56:25.238Z,6.90
2019-03-09T09:58:54.677Z,5.12
2019-03-09T10:01:23.798Z,5.00
2019-03-09T10:03:53.250Z,4.78
2019-03-09T10:06:22.678Z,5.45
2019-03-09T10:08:51.815Z,4.23
2019-03-09T10:11:20.864Z,4.20
2019-03-09T10:13:50.004Z,5.07
2019-03-09T10:16:19.171Z,3.80
2019-03-09T10:18:48.343Z,4.23
2019-03-09T10:21:17.392Z,3.57
2019-03-09T10:23:46.453Z,5.17
2019-03-09T10:26:15.631Z,4.47
2019-03-09T10:28:44.777Z,4.37
2019-03-09T10:31:13.923Z,4.90
2019-03-09T10:33:43.068Z,4.63
2019-03-09T10:36:12.187Z,4.80
2019-03-09T10:38:41.264Z,4.37
2019-03-09T10:41:10.394Z,3.73
2019-03-09T10:43:39.518Z,4.67
2019-03-09T10:46:08.596Z,4.77
2019-03-09T10:48:37.662Z,4.53
2019-03-09T10:51:06.808Z,4.30
2019-03-09T10:53:35.945Z,4.77
2019-03-09T10:56:05.068Z,5.97
2019-03-09T10:58:34.195Z,6.10
2019-03-09T11:01:04.439Z,5.30
2019-03-09T11:03:33.510Z,5.10
2019-03-09T11:06:02.649Z,4.70
2019-03-09T11:08:31.770Z,4.70
2019-03-09T11:11:00.912Z,7.00
2019-03-09T11:13:30.149Z,4.70
2019-03-09T11:15:59.227Z,4.33
2019-03-09T11:18:28.360Z,9.20
2019-03-09T11:20:57.487Z,4.63
2019-03-09T11:23:26.663Z,4.60
2019-03-09T11:25:55.817Z,5.10
2019-03-09T11:28:24.948Z,4.70
2019-03-09T11:30:54.081Z,4.63
2019-03-09T11:33:23.222Z,4.80
2019-03-09T11:35:52.582Z,4.00
2019-03-09T11:38:21.719Z,4.93
2019-03-09T11:40:57.265Z,4.23
2019-03-09T11:43:21.656Z,4.00
2019-03-09T11:45:50.798Z,4.60
2019-03-09T11:48:19.960Z,5.20
2019-03-09T11:50:49.022Z,5.70
2019-03-09T11:53:18.149Z,6.07
2019-03-09T11:55:47.271Z,5.50
2019-03-09T11:58:16.422Z,4.97
2019-03-09T12:00:46.664Z,5.80
2019-03-09T12:03:15.740Z,5.03
2019-03-09T12:05:44.799Z,5.30
2019-03-09T12:08:14.202Z,5.63
2019-03-09T12:10:43.337Z,6.20
2019-03-09T12:13:12.392Z,6.60
2019-03-09T12:15:41.550Z,5.43
2019-03-09T12:18:10.681Z,5.70
2019-03-09T12:20:39.828Z,5.60
2019-03-09T12:23:22.928Z,7.23
2019-03-09T12:25:52.100Z,6.37
2019-03-09T12:28:21.164Z,6.63
2019-03-09T12:30:50.237Z,6.97
2019-03-09T12:33:19.300Z,6.27
2019-03-09T12:35:48.438Z,6.90
2019-03-09T12:38:17.573Z,6.40
2019-03-09T12:40:46.714Z,6.73
2019-03-09T12:43:15.849Z,6.40
2019-03-09T12:45:44.998Z,6.33
2019-03-09T12:48:14.079Z,7.03
2019-03-09T12:50:43.209Z,7.90
2019-03-09T12:53:14.082Z,7.60
2019-03-09T12:55:43.375Z,7.53
2019-03-09T12:58:12.442Z,9.53
2019-03-09T13:00:41.578Z,8.13
2019-03-09T13:03:10.787Z,7.73
2019-03-09T13:05:39.922Z,6.93
2019-03-09T13:08:09.060Z,7.43
2019-03-09T13:10:38.132Z,6.57
2019-03-09T13:13:07.260Z,8.30
2019-03-09T13:15:36.481Z,6.77
2019-03-09T13:18:05.617Z,6.47
2019-03-09T13:20:34.757Z,7.40
2019-03-09T13:23:03.890Z,6.47
2019-03-09T13:25:33.016Z,7.17
2019-03-09T13:28:02.147Z,6.70
2019-03-09T13:30:31.193Z,5.90
2019-03-09T13:33:00.255Z,6.23
2019-03-09T13:35:29.393Z,6.10
2019-03-09T13:37:58.536Z,6.23
2019-03-09T13:40:27.671Z,5.93
2019-03-09T13:42:56.804Z,6.70
2019-03-09T13:45:25.864Z,6.03
2019-03-09T13:47:54.987Z,6.33
2019-03-09T13:50:24.127Z,6.07
2019-03-09T13:52:53.263Z,6.33
2019-03-09T13:55:22.413Z,6.10
2019-03-09T13:57:51.555Z,7.70
2019-03-09T14:00:20.787Z,6.03
2019-03-09T14:02:50.160Z,5.33
2019-03-09T14:05:19.220Z,4.70
2019-03-09T14:07:48.643Z,5.05
2019-03-09T14:10:18.330Z,4.12
2019-03-09T14:12:47.761Z,3.85
2019-03-09T14:15:17.868Z,4.10
2019-03-09T14:17:47.229Z,4.53
2019-03-09T14:20:16.970Z,4.03
2019-03-09T14:22:46.359Z,4.08
2019-03-09T14:25:16.260Z,6.15
2019-03-09T14:27:45.812Z,8.40
2019-03-09T14:30:19.211Z,6.25
2019-03-09T14:32:48.575Z,20.68
2019-03-09T14:35:18.001Z,14.18
2019-03-09T14:37:47.450Z,18.10
2019-03-09T14:40:17.191Z,8.38
2019-03-09T14:42:46.547Z,7.28
2019-03-09T14:45:17.481Z,7.22
2019-03-09T14:47:46.932Z,5.67
2019-03-09T14:50:16.334Z,5.28
2019-03-09T14:52:45.774Z,8.43
2019-03-09T14:55:15.148Z,4.33
2019-03-09T14:57:44.705Z,3.85
2019-03-09T15:00:27.436Z,4.00
2019-03-09T15:02:56.876Z,3.70
2019-03-09T15:05:26.309Z,4.20
2019-03-09T15:07:55.745Z,3.52
2019-03-09T15:10:25.137Z,5.35
2019-03-09T15:12:54.524Z,3.27
2019-03-09T15:15:23.971Z,3.83
2019-03-09T15:17:53.396Z,5.62
2019-03-09T15:20:22.742Z,4.62
2019-03-09T15:22:52.110Z,10.25
2019-03-09T15:25:21.475Z,5.67
2019-03-09T15:27:51.074Z,6.87
2019-03-09T15:30:21.542Z,5.33
2019-03-09T15:32:50.994Z,5.30
2019-03-09T15:35:20.349Z,5.08
2019-03-09T15:37:49.489Z,5.07
2019-03-09T15:40:19.927Z,7.72
2019-03-09T15:42:49.368Z,5.35
2019-03-09T15:45:19.686Z,5.10
2019-03-09T15:47:49.152Z,4.25
2019-03-09T15:50:19.666Z,5.78
2019-03-09T15:52:49.138Z,3.20
2019-03-09T15:55:18.672Z,4.47
2019-03-09T15:57:48.098Z,6.15
2019-03-09T16:00:22.441Z,6.37
2019-03-09T16:02:51.964Z,7.15
2019-03-09T16:05:21.439Z,6.22
2019-03-09T16:07:50.798Z,4.85
2019-03-09T16:10:21.397Z,3.70
2019-03-09T16:12:50.771Z,4.97
2019-03-09T16:15:20.301Z,4.95
2019-03-09T16:17:49.731Z,8.15
2019-03-09T16:20:23.950Z,7.05
2019-03-09T16:22:53.296Z,6.95
2019-03-09T16:25:22.742Z,12.73
2019-03-09T16:27:52.112Z,11.80
2019-03-09T16:30:24.239Z,13.62
2019-03-09T16:32:53.704Z,14.60
2019-03-09T16:35:23.141Z,75.32
2019-03-09T16:37:52.990Z,223.32
2019-03-09T16:40:26.857Z,54.85
2019-03-09T16:42:56.286Z,29.92
2019-03-09T16:45:25.824Z,26.93
2019-03-09T16:47:55.244Z,25.85
2019-03-09T16:50:24.743Z,25.02
2019-03-09T16:52:54.279Z,28.73
2019-03-09T16:55:23.830Z,61.63
2019-03-09T16:57:53.272Z,46.28
2019-03-09T17:00:23.622Z,49.93
2019-03-09T17:02:53.052Z,44.18
2019-03-09T17:05:22.494Z,40.20
2019-03-09T17:07:52.054Z,35.92
2019-03-09T17:10:21.500Z,31.80
2019-03-09T17:12:50.865Z,30.60
2019-03-09T17:15:24.856Z,33.18
2019-03-09T17:17:54.242Z,30.50
2019-03-09T17:20:23.617Z,33.80
2019-03-09T17:22:52.995Z,34.00
2019-03-09T17:25:22.441Z,34.20
2019-03-09T17:27:51.872Z,35.25
2019-03-09T17:30:21.798Z,33.53
2019-03-09T17:32:51.250Z,34.92
2019-03-09T17:35:20.687Z,34.67
2019-03-09T17:37:50.123Z,36.98
2019-03-09T17:40:20.662Z,39.42
2019-03-09T17:42:50.037Z,38.10
2019-03-09T17:45:21.592Z,40.03
2019-03-09T17:47:50.975Z,42.55
2019-03-09T17:50:20.350Z,39.05
2019-03-09T17:52:49.839Z,40.50
2019-03-09T17:55:19.262Z,34.58
2019-03-09T17:57:48.681Z,36.80
2019-03-09T18:00:29.412Z,39.80
2019-03-09T18:02:58.766Z,55.90
2019-03-09T18:05:28.233Z,49.42
2019-03-09T18:07:57.664Z,54.40
2019-03-09T18:10:54.372Z,55.52
2019-03-09T18:13:23.824Z,58.48
2019-03-09T18:15:53.261Z,77.27
2019-03-09T18:18:22.420Z,76.50
2019-03-09T18:20:51.875Z,77.72
2019-03-09T18:23:21.341Z,71.55
2019-03-09T18:25:50.737Z,63.00
2019-03-09T18:28:20.180Z,88.72
2019-03-09T18:30:49.632Z,18.95
2019-03-09T18:33:19.058Z,16.25
2019-03-09T18:35:48.424Z,18.40
2019-03-09T18:38:17.866Z,20.88
2019-03-09T18:40:49.594Z,19.80
2019-03-09T18:43:18.475Z,34.05
2019-03-09T18:45:47.896Z,28.05
2019-03-09T18:48:17.294Z,23.87
2019-03-09T18:50:46.767Z,21.17
2019-03-09T18:53:16.123Z,22.80
2019-03-09T18:55:45.618Z,20.85
2019-03-09T18:58:15.550Z,17.50
2019-03-09T19:00:45.012Z,19.12
2019-03-09T19:03:14.393Z,21.60
2019-03-09T19:05:43.819Z,23.65
2019-03-09T19:08:13.300Z,36.68
2019-03-09T19:10:43.001Z,34.15
2019-03-09T19:13:12.447Z,34.10
2019-03-09T19:15:41.906Z,34.80
2019-03-09T19:18:11.351Z,37.58
2019-03-09T19:20:40.733Z,31.60
2019-03-09T19:23:10.173Z,33.18
2019-03-09T19:25:41.397Z,32.35
2019-03-09T19:28:10.764Z,33.50
2019-03-09T19:30:40.203Z,31.80
2019-03-09T19:33:09.643Z,33.38
2019-03-09T19:35:39.092Z,32.45
2019-03-09T19:38:08.537Z,32.23
2019-03-09T19:40:38.030Z,34.63
2019-03-09T19:43:07.739Z,33.02
2019-03-09T19:45:37.186Z,40.95
2019-03-09T19:48:06.681Z,38.60
2019-03-09T19:50:36.113Z,37.40
2019-03-09T19:53:05.469Z,34.63
2019-03-09T19:55:34.975Z,42.50
2019-03-09T19:58:04.332Z,55.88
2019-03-09T20:00:33.782Z,64.72
2019-03-09T20:03:03.247Z,66.10
2019-03-09T20:05:33.434Z,60.80
2019-03-09T20:08:02.843Z,53.15
2019-03-09T20:10:32.301Z,44.25
2019-03-09T20:13:01.739Z,34.08
2019-03-09T20:15:31.202Z,17.92
2019-03-09T20:18:00.639Z,15.63
2019-03-09T20:20:30.133Z,12.07
2019-03-09T20:22:59.500Z,13.50
2019-03-09T20:25:28.936Z,15.03
2019-03-09T20:27:58.412Z,11.33
2019-03-09T20:30:27.853Z,11.45
2019-03-09T20:32:57.335Z,13.08
2019-03-09T20:35:26.697Z,13.22
2019-03-09T20:37:56.681Z,13.32
2019-03-09T20:40:26.123Z,10.00
2019-03-09T20:42:55.557Z,14.45
2019-03-09T20:45:24.986Z,13.08
2019-03-09T20:47:54.345Z,12.70
2019-03-09T20:50:24.299Z,11.55
2019-03-09T20:52:53.753Z,11.83
2019-03-09T20:55:23.242Z,11.85
2019-03-09T20:57:52.646Z,13.25
2019-03-09T21:00:22.992Z,13.60
2019-03-09T21:02:52.430Z,13.13
2019-03-09T21:05:21.909Z,14.15
2019-03-09T21:07:51.345Z,12.15
2019-03-09T21:10:21.366Z,11.90
2019-03-09T21:12:55.437Z,13.55
2019-03-09T21:15:24.847Z,15.28
2019-03-09T21:17:54.291Z,15.75
2019-03-09T21:20:23.715Z,16.02
2019-03-09T21:22:53.155Z,15.70
2019-03-09T21:25:22.629Z,12.20
2019-03-09T21:27:52.119Z,14.00
2019-03-09T21:30:21.558Z,12.45
2019-03-09T21:32:50.981Z,10.95
2019-03-09T21:35:20.443Z,11.40
2019-03-09T21:37:49.860Z,10.98
2019-03-09T21:40:19.390Z,10.50
2019-03-09T21:42:48.808Z,9.15
2019-03-09T21:45:18.229Z,9.50
2019-03-09T21:47:47.660Z,9.45
2019-03-09T21:50:18.031Z,9.40
2019-03-09T21:52:47.472Z,10.45
2019-03-09T21:55:17.242Z,10.43
2019-03-09T21:57:46.688Z,11.08
2019-03-09T22:00:20.156Z,10.58
2019-03-09T22:02:50.554Z,10.75
2019-03-09T22:05:20.072Z,11.55
2019-03-09T22:07:49.508Z,11.43
2019-03-09T22:10:18.975Z,11.15
2019-03-09T22:12:48.398Z,11.75
2019-03-09T22:15:18.567Z,12.18
2019-03-09T22:17:48.000Z,11.60
2019-03-09T22:20:17.366Z,12.90
2019-03-09T22:22:46.818Z,13.20
2019-03-09T22:25:19.253Z,13.72
2019-03-09T22:27:48.627Z,13.30
2019-03-09T22:30:20.649Z,13.58
2019-03-09T22:32:50.237Z,15.23
2019-03-09T22:35:19.681Z,15.15
2019-03-09T22:37:49.180Z,15.50
2019-03-09T22:40:19.647Z,14.45
2019-03-09T22:42:49.031Z,14.15
2019-03-09T22:45:18.518Z,12.73
2019-03-09T22:47:47.952Z,12.70
2019-03-09T22:50:18.422Z,11.70
2019-03-09T22:52:47.920Z,11.80
2019-03-09T22:55:17.363Z,12.43
2019-03-09T22:57:46.801Z,11.25
2019-03-09T23:00:18.940Z,10.80
2019-03-09T23:02:48.377Z,10.82
2019-03-09T23:05:17.994Z,9.03
2019-03-09T23:07:47.429Z,9.88
2019-03-09T23:10:18.562Z,9.93
2019-03-09T23:12:48.057Z,9.25
2019-03-09T23:15:18.062Z,9.43
2019-03-09T23:17:47.417Z,10.35
2019-03-09T23:20:17.818Z,9.73
2019-03-09T23:22:47.247Z,10.70
2019-03-09T23:25:16.675Z,10.10
2019-03-09T23:27:46.196Z,9.43
2019-03-09T23:30:18.208Z,9.78
2019-03-09T23:32:47.678Z,9.70
2019-03-09T23:35:17.301Z,8.83
2019-03-09T23:37:47.812Z,9.83
2019-03-09T23:40:18.860Z,9.08
2019-03-09T23:42:48.276Z,9.58
2019-03-09T23:45:22.084Z,10.08
2019-03-09T23:47:51.564Z,10.70
2019-03-09T23:50:21.033Z,9.80
2019-03-09T23:52:50.686Z,10.40
2019-03-09T23:55:23.024Z,9.73
2019-03-09T23:57:51.611Z,9.58
